| time (UTC) | temp F | wind direction | speed knots | gust knots | rain 1hr in | rain 24hr in | rain mn in | humidity % | barometer mb |
| 20260506204417 | 57 | 26 | 1.7 | 6.1 | 0.00 | 0.00 | 0.00 | 30 | 1023.2 |
| 20260506203517 | 56 | 19 | 2.6 | 10.4 | 0.00 | 0.00 | 0.00 | 31 | 1023.2 |
| 20260506202617 | 55 | 75 | 2.6 | 10.4 | 0.00 | 0.00 | 0.00 | 34 | 1022.9 |
| 20260506200817 | 55 | 63 | 2.6 | 7.8 | 0.00 | 0.00 | 0.00 | 31 | 1023.0 |
| 20260506195917 | 55 | 68 | 3.5 | 8.7 | 0.00 | 0.00 | 0.00 | 31 | 1022.4 |
| 20260506194117 | 54 | 58 | 3.5 | 10.4 | 0.00 | 0.00 | 0.00 | 32 | 1022.6 |
| 20260506193217 | 54 | 75 | 3.5 | 11.3 | 0.00 | 0.00 | 0.00 | 33 | 1022.7 |
| 20260506192317 | 54 | 74 | 3.5 | 7.8 | 0.00 | 0.00 | 0.00 | 35 | 1022.7 |
| 20260506191417 | 54 | 54 | 2.6 | 9.6 | 0.00 | 0.00 | 0.00 | 37 | 1022.7 |
| 20260506190518 | 53 | 67 | 3.5 | 10.4 | 0.00 | 0.00 | 0.00 | 39 | 1022.7 |
| 20260506185617 | 53 | 59 | 2.6 | 7.8 | 0.00 | 0.00 | 0.00 | 40 | 1022.7 |
| 20260506184717 | 53 | 70 | 4.3 | 11.3 | 0.00 | 0.00 | 0.00 | 40 | 1022.8 |
| 20260506183817 | 53 | 57 | 1.7 | 7.0 | 0.00 | 0.00 | 0.00 | 40 | 1022.7 |
| 20260506182917 | 53 | 58 | 2.6 | 11.3 | 0.00 | 0.00 | 0.00 | 41 | 1022.6 |
| 20260506182018 | 53 | 40 | 2.6 | 7.8 | 0.00 | 0.00 | 0.00 | 43 | 1022.5 |
| 20260506180218 | 53 | 58 | 2.6 | 8.7 | 0.00 | 0.00 | 0.00 | 45 | 1022.7 |
| 20260506174418 | 51 | 59 | 3.5 | 9.6 | 0.00 | 0.00 | 0.00 | 49 | 1022.5 |
| 20260506173518 | 51 | 62 | 2.6 | 11.3 | 0.00 | 0.00 | 0.00 | 51 | 1022.3 |
| 20260506172617 | 50 | 68 | 4.3 | 13.0 | 0.00 | 0.00 | 0.00 | 53 | 1022.2 |
| 20260506171718 | 50 | 58 | 5.2 | 13.9 | 0.00 | 0.00 | 0.00 | 53 | 1022.1 |
| 20260506170817 | 51 | 67 | 4.3 | 13.9 | 0.00 | 0.00 | 0.00 | 51 | 1022.0 |
| 20260506164117 | 52 | 117 | 1.7 | 8.7 | 0.00 | 0.00 | 0.00 | 51 | 1022.0 |
| 20260506163217 | 51 | 77 | 2.6 | 11.3 | 0.00 | 0.00 | 0.00 | 53 | 1021.9 |
| 20260506162318 | 51 | 79 | 2.6 | 8.7 | 0.00 | 0.00 | 0.00 | 52 | 1021.7 |
| 20260506161418 | 52 | 67 | 1.7 | 8.7 | 0.00 | 0.00 | 0.00 | 51 | 1021.8 |
| 20260506160517 | 51 | 84 | 1.7 | 8.7 | 0.00 | 0.00 | 0.00 | 52 | 1021.9 |
| 20260506155617 | 51 | 60 | 0.9 | 3.5 | 0.00 | 0.00 | 0.00 | 53 | 1021.2 |
| 20260506154717 | 50 | 70 | 1.7 | 8.7 | 0.00 | 0.00 | 0.00 | 53 | 1021.4 |
| 20260506145317 | 46 | 141 | 0.9 | 2.6 | 0.00 | 0.00 | 0.00 | 65 | 1021.0 |
| 20260506143517 | 41 | 275 | 0.9 | 6.1 | 0.00 | 0.00 | 0.00 | 75 | 1021.0 |
| 20260506140818 | 35 | 238 | 0.9 | 2.6 | 0.00 | 0.00 | 0.00 | 84 | 1020.8 |
| 20260506134118 | 32 | 216 | 0.9 | 5.2 | 0.00 | 0.00 | 0.00 | 85 | 1019.6 |
| 20260506133217 | 31 | 209 | 0.9 | 5.2 | 0.00 | 0.00 | 0.00 | 84 | 1019.3 |
| 20260506131417 | 31 | 222 | 0.9 | 3.5 | 0.00 | 0.00 | 0.00 | 83 | 1019.3 |
| 20260506125618 | 31 | 231 | 0.0 | 1.7 | 0.00 | 0.00 | 0.00 | 82 | 1019.0 |
| 20260506123817 | 31 | 220 | 0.9 | 2.6 | 0.00 | 0.00 | 0.00 | 82 | 1018.8 |
| 20260506122017 | 31 | 221 | 0.9 | 2.6 | 0.00 | 0.00 | 0.00 | 81 | 1018.8 |
| 20260506121117 | 31 | 220 | 0.9 | 2.6 | 0.00 | 0.00 | 0.00 | 81 | 1018.7 |
| 20260506120217 | 31 | 0 | 0.0 | 0.0 | 0.00 | 0.00 | 0.00 | 81 | 1018.7 |
| 20260506115317 | 31 | 227 | 0.0 | 1.7 | 0.00 | 0.00 | 0.00 | 80 | 1018.6 |
| 20260506114417 | 31 | 224 | 0.9 | 1.7 | 0.00 | 0.00 | 0.00 | 80 | 1018.7 |
| 20260506113517 | 31 | 220 | 0.9 | 1.7 | 0.00 | 0.00 | 0.00 | 80 | 1018.5 |
| 20260506111717 | 32 | 217 | 0.0 | 1.7 | 0.00 | 0.00 | 0.00 | 79 | 1018.5 |
| 20260506110817 | 32 | 232 | 0.0 | 1.7 | 0.00 | 0.00 | 0.00 | 79 | 1018.4 |
| 20260506105917 | 32 | 232 | 0.0 | 1.7 | 0.00 | 0.00 | 0.00 | 79 | 1018.4 |
| 20260506105017 | 32 | 233 | 0.0 | 1.7 | 0.00 | 0.00 | 0.00 | 78 | 1018.3 |
| 20260506104117 | 33 | 234 | 0.9 | 1.7 | 0.00 | 0.00 | 0.00 | 78 | 1018.3 |
| 20260506103217 | 33 | 227 | 0.9 | 1.7 | 0.00 | 0.00 | 0.00 | 77 | 1018.2 |
| 20260506102317 | 33 | 228 | 0.9 | 1.7 | 0.00 | 0.00 | 0.00 | 77 | 1017.9 |
| 20260506101418 | 33 | 228 | 0.9 | 1.7 | 0.00 | 0.00 | 0.00 | 76 | 1018.0 |
| 20260506100517 | 33 | 228 | 0.9 | 1.7 | 0.00 | 0.00 | 0.00 | 75 | 1017.9 |
| 20260506095617 | 34 | 226 | 0.9 | 0.9 | 0.00 | 0.00 | 0.00 | 75 | 1017.9 |
| 20260506094717 | 34 | 225 | 0.0 | 0.9 | 0.00 | 0.00 | 0.00 | 74 | 1017.8 |
| 20260506093817 | 34 | 213 | 0.0 | 1.7 | 0.00 | 0.00 | 0.00 | 74 | 1017.7 |
| 20260506092917 | 35 | 208 | 0.9 | 1.7 | 0.00 | 0.00 | 0.00 | 72 | 1017.7 |
| 20260506092017 | 35 | 206 | 0.9 | 1.7 | 0.00 | 0.00 | 0.00 | 72 | 1017.7 |
| 20260506091118 | 35 | 206 | 0.0 | 1.7 | 0.00 | 0.00 | 0.00 | 72 | 1017.7 |
| 20260506090217 | 36 | 207 | 0.0 | 1.7 | 0.00 | 0.00 | 0.00 | 72 | 1017.6 |
| 20260506085317 | 36 | 213 | 0.9 | 1.7 | 0.00 | 0.00 | 0.00 | 72 | 1017.8 |
| 20260506084417 | 36 | 190 | 0.9 | 2.6 | 0.00 | 0.00 | 0.00 | 72 | 1017.9 |
| 20260506083517 | 36 | 184 | 0.9 | 3.5 | 0.00 | 0.00 | 0.00 | 73 | 1017.8 |
| 20260506081717 | 36 | 218 | 0.9 | 3.5 | 0.00 | 0.00 | 0.00 | 71 | 1017.8 |
| 20260506073217 | 36 | 236 | 0.9 | 2.6 | 0.00 | 0.00 | 0.00 | 69 | 1017.7 |
| 20260506072318 | 36 | 233 | 0.9 | 2.6 | 0.00 | 0.00 | 0.00 | 69 | 1017.8 |
| 20260506071417 | 36 | 219 | 0.9 | 2.6 | 0.00 | 0.00 | 0.00 | 69 | 1017.8 |
| 20260506070517 | 35 | 193 | 0.9 | 4.3 | 0.00 | 0.00 | 0.00 | 69 | 1017.9 |
| 20260506062017 | 33 | 196 | 0.9 | 1.7 | 0.00 | 0.00 | 0.00 | 72 | 1017.2 |
| 20260506060217 | 33 | 211 | 0.9 | 2.6 | 0.00 | 0.00 | 0.00 | 71 | 1016.9 |
| 20260506050817 | 34 | 204 | 0.9 | 2.6 | 0.00 | 0.00 | 0.00 | 68 | 1016.6 |
| 20260506045018 | 35 | 200 | 0.9 | 3.5 | 0.00 | 0.00 | 0.00 | 67 | 1016.3 |
| 20260506044117 | 35 | 195 | 0.9 | 3.5 | 0.00 | 0.00 | 0.00 | 66 | 1016.1 |
| 20260506043217 | 36 | 186 | 0.9 | 2.6 | 0.00 | 0.00 | 0.00 | 65 | 1015.9 |
| 20260506042317 | 36 | 197 | 0.9 | 4.3 | 0.00 | 0.00 | 0.00 | 65 | 1015.7 |
| 20260506040517 | 37 | 204 | 0.9 | 2.6 | 0.00 | 0.00 | 0.00 | 64 | 1016.0 |
| 20260506035618 | 38 | 191 | 0.9 | 1.7 | 0.00 | 0.00 | 0.00 | 64 | 1015.7 |
| 20260506033817 | 39 | 229 | 0.9 | 1.7 | 0.00 | 0.00 | 0.00 | 63 | 1015.4 |
| 20260506032917 | 39 | 255 | 0.9 | 1.7 | 0.00 | 0.00 | 0.00 | 63 | 1015.2 |
| 20260506032018 | 40 | 270 | 0.9 | 1.7 | 0.00 | 0.00 | 0.00 | 62 | 1015.1 |
| 20260506031117 | 40 | 290 | 0.9 | 1.7 | 0.00 | 0.00 | 0.00 | 60 | 1014.9 |
| 20260506030217 | 41 | 0 | 0.0 | 0.0 | 0.00 | 0.00 | 0.00 | 58 | 1014.7 |
| 20260506015917 | 45 | 0 | 0.0 | 0.0 | 0.00 | 0.00 | 0.00 | 49 | 1014.1 |
| 20260506015017 | 45 | 0 | 0.0 | 0.0 | 0.00 | 0.00 | 0.00 | 46 | 1014.0 |
| 20260506014117 | 46 | 349 | 0.0 | 3.5 | 0.00 | 0.00 | 0.00 | 43 | 1014.0 |
| 20260506013218 | 46 | 36 | 0.9 | 4.3 | 0.00 | 0.00 | 0.00 | 41 | 1013.6 |
| 20260506012318 | 46 | 68 | 1.7 | 9.6 | 0.00 | 0.00 | 0.00 | 39 | 1013.6 |
| 20260506011417 | 47 | 292 | 0.9 | 2.6 | 0.00 | 0.00 | 0.00 | 39 | 1013.7 |
| 20260506010517 | 47 | 318 | 0.9 | 2.6 | 0.00 | 0.00 | 0.00 | 38 | 1013.7 |
| 20260506005617 | 47 | 329 | 0.9 | 4.3 | 0.00 | 0.00 | 0.00 | 37 | 1013.7 |
| 20260506003818 | 46 | 317 | 1.7 | 8.7 | 0.00 | 0.00 | 0.00 | 35 | 1013.4 |
| 20260506002917 | 46 | 59 | 1.7 | 7.0 | 0.00 | 0.00 | 0.00 | 39 | 1013.3 |
| 20260506002018 | 46 | 322 | 2.6 | 11.3 | 0.00 | 0.00 | 0.00 | 38 | 1013.2 |
| 20260506001118 | 46 | 46 | 4.3 | 12.2 | 0.00 | 0.00 | 0.00 | 38 | 1013.2 |
| 20260505235318 | 46 | 67 | 1.7 | 5.2 | 0.00 | 0.00 | 0.00 | 42 | 1012.9 |
| 20260505234417 | 46 | 55 | 0.9 | 5.2 | 0.00 | 0.00 | 0.00 | 43 | 1013.0 |
| 20260505233518 | 46 | 29 | 1.7 | 7.8 | 0.00 | 0.00 | 0.00 | 41 | 1013.0 |
| 20260505231718 | 48 | 127 | 0.9 | 5.2 | 0.00 | 0.00 | 0.00 | 43 | 1012.8 |
| 20260505230817 | 47 | 56 | 1.7 | 7.8 | 0.00 | 0.00 | 0.00 | 43 | 1013.0 |
| 20260505225917 | 47 | 22 | 1.7 | 7.8 | 0.00 | 0.00 | 0.00 | 45 | 1013.1 |
| 20260505223217 | 47 | 64 | 1.7 | 6.1 | 0.00 | 0.00 | 0.00 | 45 | 1013.3 |
| 20260505222318 | 46 | 77 | 1.7 | 8.7 | 0.00 | 0.00 | 0.00 | 46 | 1013.2 |
| 20260505221417 | 46 | 356 | 1.7 | 7.0 | 0.00 | 0.00 | 0.00 | 48 | 1013.1 |
| 20260505220518 | 46 | 359 | 0.9 | 7.8 | 0.00 | 0.00 | 0.00 | 48 | 1013.3 |
| 20260505215617 | 46 | 357 | 0.9 | 8.7 | 0.00 | 0.00 | 0.00 | 47 | 1013.4 |
| 20260505213817 | 44 | 58 | 0.9 | 2.6 | 0.00 | 0.00 | 0.00 | 51 | 1013.0 |
| 20260505212917 | 44 | 22 | 1.7 | 7.0 | 0.00 | 0.00 | 0.00 | 51 | 1013.1 |
| 20260505212017 | 44 | 13 | 1.7 | 7.0 | 0.00 | 0.00 | 0.00 | 52 | 1013.0 |
| 20260505211117 | 44 | 22 | 1.7 | 9.6 | 0.00 | 0.00 | 0.00 | 52 | 1013.1 |
| 20260505210218 | 44 | 5 | 0.9 | 7.0 | 0.00 | 0.00 | 0.00 | 51 | 1013.0 |
| 20260505205317 | 44 | 25 | 0.9 | 7.0 | 0.00 | 0.00 | 0.00 | 52 | 1013.4 |